Time;durP1;ratioP1;P1;durP2;ratioP2;P2;SDS_P1;SDS_P2;PMS_P1;PMS_P2;Temp;Humidity;BMP_temperature;BMP_pressure;BME280_temperature;BME280_humidity;BME280_pressure;Samples;Min_cycle;Max_cycle;Signal;HPM_P1;HPM_P2
2023/02/10 00:00:52;;;;;;;36.22;21.80;;;;;;;;;;5051418;28;20744;-67
2023/02/10 00:03:20;;;;;;;44.90;24.00;;;;;;;;;;5052209;28;20215;-69
2023/02/10 00:05:48;;;;;;;38.47;21.23;;;;;;;;;;5051294;28;20581;-68
2023/02/10 00:08:16;;;;;;;35.08;19.58;;;;;;;;;;5052191;28;20219;-68
2023/02/10 00:10:44;;;;;;;43.65;21.88;;;;;;;;;;5050739;28;20205;-68
2023/02/10 00:13:12;;;;;;;31.48;20.35;;;;;;;;;;5052080;28;20192;-67
2023/02/10 00:15:41;;;;;;;43.53;20.33;;;;;;;;;;5052080;28;20208;-67
2023/02/10 00:18:10;;;;;;;32.97;18.75;;;;;;;;;;5051971;28;20196;-67
2023/02/10 00:20:38;;;;;;;42.15;20.20;;;;;;;;;;5051304;28;20200;-67
2023/02/10 00:23:07;;;;;;;38.75;21.77;;;;;;;;;;5051856;28;20235;-69
2023/02/10 00:25:36;;;;;;;36.08;19.88;;;;;;;;;;5051537;28;20225;-68
2023/02/10 00:28:04;;;;;;;36.60;20.48;;;;;;;;;;5051581;28;20215;-68
2023/02/10 00:30:33;;;;;;;38.30;20.25;;;;;;;;;;5051527;28;20219;-66
2023/02/10 00:33:01;;;;;;;36.88;20.45;;;;;;;;;;5050574;28;20205;-66
2023/02/10 00:35:31;;;;;;;38.50;21.38;;;;;;;;;;5051378;28;20668;-67
2023/02/10 00:37:59;;;;;;;37.50;20.77;;;;;;;;;;5050713;28;20241;-67
2023/02/10 00:40:27;;;;;;;36.38;19.95;;;;;;;;;;5050821;28;20686;-68
2023/02/10 00:42:55;;;;;;;30.95;18.58;;;;;;;;;;5051285;28;20693;-67
2023/02/10 00:45:23;;;;;;;33.92;19.45;;;;;;;;;;5051735;28;20224;-68
2023/02/10 00:47:53;;;;;;;40.72;21.27;;;;;;;;;;5050447;28;20208;-68
2023/02/10 00:50:21;;;;;;;41.22;20.42;;;;;;;;;;5046518;28;20208;-67
2023/02/10 00:52:53;;;;;;;35.70;19.65;;;;;;;;;;5032936;28;20574;-67
2023/02/10 00:55:21;;;;;;;33.78;20.95;;;;;;;;;;5034628;28;20555;-68
2023/02/10 00:57:49;;;;;;;34.20;19.10;;;;;;;;;;5034085;28;20680;-67
2023/02/10 01:00:18;;;;;;;47.78;21.33;;;;;;;;;;5037167;28;20209;-67
2023/02/10 01:02:47;;;;;;;44.42;23.27;;;;;;;;;;5033415;28;20664;-67
2023/02/10 01:05:15;;;;;;;42.25;23.83;;;;;;;;;;5036139;28;20223;-67
2023/02/10 01:07:44;;;;;;;39.55;21.80;;;;;;;;;;5053998;28;20603;-68
2023/02/10 01:10:14;;;;;;;44.13;22.15;;;;;;;;;;5053687;28;20234;-68
2023/02/10 01:12:42;;;;;;;42.22;23.42;;;;;;;;;;5053052;28;20683;-67
2023/02/10 01:15:10;;;;;;;39.58;22.10;;;;;;;;;;5054059;28;20686;-68
2023/02/10 01:17:38;;;;;;;37.25;20.75;;;;;;;;;;5054151;28;20205;-68
2023/02/10 01:20:07;;;;;;;42.17;22.58;;;;;;;;;;5053973;28;20196;-66
2023/02/10 01:22:36;;;;;;;41.10;22.70;;;;;;;;;;5053925;28;20699;-67
2023/02/10 01:25:07;;;;;;;41.10;22.77;;;;;;;;;;5053393;28;20181;-67
2023/02/10 01:27:37;;;;;;;34.63;21.88;;;;;;;;;;5053044;28;20212;-67
2023/02/10 01:30:05;;;;;;;51.63;25.27;;;;;;;;;;5053613;28;20230;-67
2023/02/10 01:32:33;;;;;;;46.38;23.08;;;;;;;;;;5054183;28;20617;-67
2023/02/10 01:35:02;;;;;;;35.83;20.70;;;;;;;;;;5052975;28;20219;-67
2023/02/10 01:37:30;;;;;;;42.35;22.50;;;;;;;;;;5048348;28;20259;-67
2023/02/10 01:39:58;;;;;;;44.60;23.30;;;;;;;;;;5053294;28;20208;-68
2023/02/10 01:42:28;;;;;;;48.80;23.95;;;;;;;;;;5046343;28;20201;-67
2023/02/10 01:45:13;;;;;;;46.15;23.80;;;;;;;;;;5046899;28;20201;-68
2023/02/10 01:47:42;;;;;;;40.72;23.75;;;;;;;;;;5049972;28;20242;-67
2023/02/10 01:50:10;;;;;;;47.35;23.58;;;;;;;;;;5033225;28;20205;-67
2023/02/10 01:52:39;;;;;;;48.95;24.75;;;;;;;;;;5033182;28;20301;-67
2023/02/10 01:55:09;;;;;;;43.47;22.13;;;;;;;;;;5033150;28;20209;-67
2023/02/10 01:57:39;;;;;;;41.35;22.23;;;;;;;;;;5034070;28;20220;-67
2023/02/10 02:00:20;;;;;;;41.83;22.70;;;;;;;;;;5036111;28;20189;-67
2023/02/10 02:02:49;;;;;;;39.45;23.48;;;;;;;;;;5052443;28;20193;-69
2023/02/10 02:05:22;;;;;;;46.67;25.92;;;;;;;;;;5052027;28;20204;-67
2023/02/10 02:07:52;;;;;;;45.40;24.10;;;;;;;;;;5052561;28;20199;-67
2023/02/10 02:10:21;;;;;;;44.63;24.98;;;;;;;;;;5052995;28;20607;-67
2023/02/10 02:12:54;;;;;;;51.78;23.17;;;;;;;;;;5053385;28;20205;-67
2023/02/10 02:15:27;;;;;;;43.40;22.42;;;;;;;;;;5051424;28;20561;-67
2023/02/10 02:18:01;;;;;;;40.15;21.60;;;;;;;;;;5053555;28;20195;-67
2023/02/10 02:20:55;;;;;;;40.85;25.13;;;;;;;;;;5052863;28;20223;-67
2023/02/10 02:23:38;;;;;;;49.85;24.05;;;;;;;;;;5052815;28;20239;-67
2023/02/10 02:26:30;;;;;;;45.83;24.73;;;;;;;;;;5040654;28;20216;-67
2023/02/10 02:29:17;;;;;;;50.83;24.95;;;;;;;;;;5052769;28;20199;-67
2023/02/10 02:31:50;;;;;;;50.40;23.65;;;;;;;;;;5053156;28;20246;-67
2023/02/10 02:34:20;;;;;;;45.60;23.30;;;;;;;;;;5052346;28;20558;-67
2023/02/10 02:36:51;;;;;;;49.03;24.45;;;;;;;;;;5046078;28;20225;-67
2023/02/10 02:39:19;;;;;;;50.47;25.88;;;;;;;;;;5032468;28;20557;-67
2023/02/10 02:41:47;;;;;;;44.58;22.98;;;;;;;;;;5031795;28;20201;-67
2023/02/10 02:44:17;;;;;;;46.83;23.75;;;;;;;;;;5015071;28;20212;-68
2023/02/10 02:46:53;;;;;;;44.45;24.13;;;;;;;;;;5032465;28;20612;-67
2023/02/10 02:49:27;;;;;;;45.60;22.55;;;;;;;;;;5032640;28;20658;-67
2023/02/10 02:52:00;;;;;;;48.40;25.77;;;;;;;;;;5032602;28;20644;-67
2023/02/10 02:54:33;;;;;;;49.08;24.65;;;;;;;;;;5032297;28;20186;-67
2023/02/10 02:57:06;;;;;;;47.53;24.15;;;;;;;;;;5034608;28;20185;-67
2023/02/10 02:59:36;;;;;;;45.35;24.08;;;;;;;;;;5041347;28;20208;-66
2023/02/10 03:02:08;;;;;;;50.60;24.13;;;;;;;;;;5042687;28;20204;-66
2023/02/10 03:04:36;;;;;;;52.78;24.17;;;;;;;;;;5051378;28;20207;-66
2023/02/10 03:07:04;;;;;;;50.25;24.73;;;;;;;;;;5052311;28;20695;-66
2023/02/10 03:09:33;;;;;;;45.95;24.77;;;;;;;;;;5051946;28;20209;-66
2023/02/10 03:12:01;;;;;;;44.42;23.67;;;;;;;;;;5047078;28;20213;-66
2023/02/10 03:14:30;;;;;;;42.75;24.05;;;;;;;;;;5052261;28;20254;-66
2023/02/10 03:16:58;;;;;;;46.97;23.50;;;;;;;;;;5052837;28;20227;-67
2023/02/10 03:19:27;;;;;;;43.83;24.15;;;;;;;;;;5051807;28;20205;-66
2023/02/10 03:21:55;;;;;;;80.30;41.17;;;;;;;;;;5052633;28;20208;-66
2023/02/10 03:24:24;;;;;;;65.55;35.83;;;;;;;;;;5052366;28;20205;-66
2023/02/10 03:26:52;;;;;;;43.38;24.48;;;;;;;;;;5051163;28;20224;-66
2023/02/10 03:29:23;;;;;;;49.08;26.45;;;;;;;;;;5052155;28;20188;-66
2023/02/10 03:31:51;;;;;;;47.67;25.55;;;;;;;;;;5051844;28;20207;-66
2023/02/10 03:34:20;;;;;;;55.97;30.20;;;;;;;;;;5052202;28;20214;-67
2023/02/10 03:36:49;;;;;;;53.33;24.75;;;;;;;;;;5051708;28;20232;-67
2023/02/10 03:39:17;;;;;;;49.65;24.90;;;;;;;;;;5051791;28;20720;-67
2023/02/10 03:41:45;;;;;;;48.17;26.05;;;;;;;;;;5051640;28;20204;-67
2023/02/10 03:44:14;;;;;;;55.10;29.60;;;;;;;;;;5051600;28;20208;-66
2023/02/10 03:46:42;;;;;;;54.92;31.50;;;;;;;;;;5051920;28;20231;-67
2023/02/10 03:49:10;;;;;;;54.28;29.40;;;;;;;;;;5051767;28;20208;-66
2023/02/10 03:51:38;;;;;;;48.50;26.55;;;;;;;;;;5046393;28;20657;-66
2023/02/10 03:54:08;;;;;;;49.30;25.55;;;;;;;;;;5031712;28;20215;-66
2023/02/10 03:56:36;;;;;;;48.85;26.55;;;;;;;;;;5031591;28;20201;-67
2023/02/10 03:59:05;;;;;;;52.33;25.52;;;;;;;;;;5031994;28;20569;-66
2023/02/10 04:01:33;;;;;;;46.85;24.52;;;;;;;;;;5031115;28;20213;-66
2023/02/10 04:04:02;;;;;;;52.25;27.65;;;;;;;;;;5030569;28;20323;-66
2023/02/10 04:06:30;;;;;;;59.22;28.90;;;;;;;;;;5031762;28;20210;-67
2023/02/10 04:08:58;;;;;;;45.55;25.10;;;;;;;;;;5031868;28;20559;-67
2023/02/10 04:11:29;;;;;;;47.75;23.20;;;;;;;;;;5031573;28;20581;-66
2023/02/10 04:13:57;;;;;;;47.15;24.40;;;;;;;;;;5031616;28;20215;-66
2023/02/10 04:16:27;;;;;;;43.42;23.55;;;;;;;;;;5031682;28;20211;-66
2023/02/10 04:18:55;;;;;;;51.63;27.05;;;;;;;;;;5031615;28;20204;-66
2023/02/10 04:21:24;;;;;;;51.70;25.60;;;;;;;;;;5031670;28;20734;-67
2023/02/10 04:23:53;;;;;;;41.20;22.63;;;;;;;;;;5035178;28;20239;-67
2023/02/10 04:26:21;;;;;;;48.13;25.40;;;;;;;;;;5035079;28;20667;-67
2023/02/10 04:28:50;;;;;;;49.47;25.67;;;;;;;;;;5034676;28;20278;-66
2023/02/10 04:31:19;;;;;;;52.42;25.67;;;;;;;;;;5035168;28;20211;-66
2023/02/10 04:33:47;;;;;;;43.90;23.58;;;;;;;;;;5034838;28;20235;-66
2023/02/10 04:36:15;;;;;;;49.08;24.13;;;;;;;;;;5034748;28;20237;-67
2023/02/10 04:38:43;;;;;;;47.63;24.45;;;;;;;;;;5035185;28;20211;-66
2023/02/10 04:41:11;;;;;;;44.03;21.45;;;;;;;;;;5035054;28;20210;-66
2023/02/10 04:43:39;;;;;;;41.60;25.02;;;;;;;;;;5034591;28;20284;-67
2023/02/10 04:46:09;;;;;;;45.55;22.92;;;;;;;;;;5035204;28;20523;-67
2023/02/10 04:48:37;;;;;;;42.35;24.13;;;;;;;;;;5034804;28;20228;-66
2023/02/10 04:51:09;;;;;;;46.35;23.40;;;;;;;;;;5035129;28;20664;-66
2023/02/10 04:53:37;;;;;;;43.22;24.45;;;;;;;;;;5054873;28;20188;-66
2023/02/10 04:56:06;;;;;;;46.08;23.92;;;;;;;;;;5053040;28;20676;-68
2023/02/10 04:58:34;;;;;;;43.72;22.48;;;;;;;;;;5054101;28;20580;-66
2023/02/10 05:01:03;;;;;;;44.72;23.77;;;;;;;;;;5053922;28;20208;-66
2023/02/10 05:03:32;;;;;;;45.67;24.25;;;;;;;;;;5053143;28;20310;-66
2023/02/10 05:06:00;;;;;;;54.15;24.67;;;;;;;;;;5054454;28;20208;-67
2023/02/10 05:08:28;;;;;;;45.22;23.65;;;;;;;;;;5042145;28;20699;-66
2023/02/10 05:10:57;;;;;;;41.78;23.85;;;;;;;;;;5037444;28;20203;-66
2023/02/10 05:13:25;;;;;;;47.35;24.85;;;;;;;;;;5049481;28;20208;-66
2023/02/10 05:15:53;;;;;;;42.83;23.30;;;;;;;;;;5054487;28;20219;-66
2023/02/10 05:18:22;;;;;;;49.95;25.45;;;;;;;;;;5034678;28;20255;-66
2023/02/10 05:20:52;;;;;;;50.80;24.77;;;;;;;;;;5034740;28;20213;-66
2023/02/10 05:23:20;;;;;;;49.20;24.88;;;;;;;;;;5033501;28;20228;-67
2023/02/10 05:25:48;;;;;;;43.50;23.15;;;;;;;;;;5034021;28;20255;-66
2023/02/10 05:28:16;;;;;;;45.13;23.95;;;;;;;;;;5034491;28;20232;-66
2023/02/10 05:30:44;;;;;;;47.15;24.33;;;;;;;;;;5054283;28;20622;-66
2023/02/10 05:33:13;;;;;;;43.35;24.70;;;;;;;;;;5052808;28;20205;-67
2023/02/10 05:35:41;;;;;;;42.25;22.17;;;;;;;;;;5053756;28;20675;-66
2023/02/10 05:38:10;;;;;;;48.53;25.83;;;;;;;;;;5053932;28;20196;-67
2023/02/10 05:40:39;;;;;;;55.20;25.65;;;;;;;;;;5053627;28;20208;-67
2023/02/10 05:43:08;;;;;;;44.90;23.10;;;;;;;;;;5053771;28;20254;-66
2023/02/10 05:45:36;;;;;;;46.30;22.80;;;;;;;;;;5053724;28;20217;-66
2023/02/10 05:48:05;;;;;;;48.55;25.50;;;;;;;;;;5053135;28;20226;-66
2023/02/10 05:50:33;;;;;;;50.38;24.50;;;;;;;;;;5050286;28;20608;-67
2023/02/10 05:53:01;;;;;;;43.85;24.45;;;;;;;;;;5041679;28;20649;-68
2023/02/10 05:55:31;;;;;;;42.85;22.17;;;;;;;;;;5042635;28;20201;-67
2023/02/10 05:57:59;;;;;;;41.65;25.02;;;;;;;;;;5048898;28;20201;-67
2023/02/10 06:00:27;;;;;;;41.10;22.67;;;;;;;;;;5045739;28;20202;-67
2023/02/10 06:02:55;;;;;;;49.92;24.85;;;;;;;;;;5044150;28;20568;-67
2023/02/10 06:05:23;;;;;;;45.97;22.52;;;;;;;;;;5039189;28;20237;-67
2023/02/10 06:07:54;;;;;;;49.92;24.48;;;;;;;;;;5033478;28;20229;-66
2023/02/10 06:10:22;;;;;;;56.47;26.50;;;;;;;;;;5044378;28;20193;-67
2023/02/10 06:12:52;;;;;;;51.88;26.60;;;;;;;;;;5040377;28;20211;-67
2023/02/10 06:15:20;;;;;;;42.75;24.88;;;;;;;;;;5041377;28;20208;-67
2023/02/10 06:17:48;;;;;;;64.50;27.23;;;;;;;;;;5040165;28;20572;-67
2023/02/10 06:20:16;;;;;;;60.67;27.75;;;;;;;;;;5042444;28;20251;-67
2023/02/10 06:22:45;;;;;;;53.13;24.98;;;;;;;;;;5043012;28;20224;-67
2023/02/10 06:25:13;;;;;;;47.95;24.50;;;;;;;;;;5040323;28;20201;-66
2023/02/10 06:27:41;;;;;;;45.05;23.45;;;;;;;;;;5040904;28;20201;-67
2023/02/10 06:30:11;;;;;;;57.13;27.15;;;;;;;;;;5040209;28;20196;-67
2023/02/10 06:32:40;;;;;;;61.70;26.55;;;;;;;;;;5043359;28;20202;-67
2023/02/10 06:35:08;;;;;;;47.03;26.05;;;;;;;;;;5038451;28;20203;-68
2023/02/10 06:37:36;;;;;;;48.22;24.38;;;;;;;;;;5052065;28;20232;-68
2023/02/10 06:40:05;;;;;;;59.50;26.83;;;;;;;;;;5051934;28;20204;-68
2023/02/10 06:42:33;;;;;;;52.50;26.55;;;;;;;;;;5050265;28;20211;-68
2023/02/10 06:45:01;;;;;;;49.97;23.95;;;;;;;;;;5052355;28;20204;-68
2023/02/10 06:47:31;;;;;;;63.38;35.83;;;;;;;;;;5036070;28;21115;-67
2023/02/10 06:49:59;;;;;;;58.20;30.88;;;;;;;;;;5044522;28;20672;-67
2023/02/10 06:52:27;;;;;;;53.58;28.42;;;;;;;;;;5033680;28;20569;-67
2023/02/10 06:54:55;;;;;;;50.78;25.95;;;;;;;;;;5051940;28;20200;-69
2023/02/10 06:57:24;;;;;;;51.95;26.00;;;;;;;;;;5051829;28;20605;-68
2023/02/10 06:59:52;;;;;;;61.55;28.65;;;;;;;;;;5052367;28;20231;-68
2023/02/10 07:02:21;;;;;;;62.45;27.02;;;;;;;;;;5051832;28;20209;-68
2023/02/10 07:04:50;;;;;;;65.50;27.88;;;;;;;;;;5050941;28;20208;-68
2023/02/10 07:07:18;;;;;;;57.67;28.35;;;;;;;;;;5052451;28;20574;-65
2023/02/10 07:09:47;;;;;;;53.75;26.30;;;;;;;;;;5051900;28;20196;-65
2023/02/10 07:12:15;;;;;;;57.97;27.98;;;;;;;;;;5048062;28;20677;-65
2023/02/10 07:14:43;;;;;;;57.38;28.42;;;;;;;;;;5034397;28;20209;-65
2023/02/10 07:17:12;;;;;;;57.97;27.75;;;;;;;;;;5046913;28;20200;-68
2023/02/10 07:19:40;;;;;;;51.28;26.92;;;;;;;;;;5048586;28;20224;-66
2023/02/10 07:22:09;;;;;;;54.60;27.83;;;;;;;;;;5032411;28;20205;-68
2023/02/10 07:24:37;;;;;;;54.30;28.98;;;;;;;;;;5031643;28;20205;-68
2023/02/10 07:27:06;;;;;;;53.90;27.35;;;;;;;;;;5033425;28;20916;-66
2023/02/10 07:29:34;;;;;;;60.78;27.83;;;;;;;;;;5046120;28;20572;-66
2023/02/10 07:32:02;;;;;;;57.60;28.50;;;;;;;;;;5050536;28;20209;-67
2023/02/10 07:34:33;;;;;;;47.25;24.50;;;;;;;;;;5054948;28;20207;-68
2023/02/10 07:37:02;;;;;;;58.63;27.13;;;;;;;;;;5068247;28;20241;-68
2023/02/10 07:39:31;;;;;;;50.53;26.63;;;;;;;;;;5071048;28;20226;-68
2023/02/10 07:41:59;;;;;;;51.80;28.48;;;;;;;;;;5065986;28;20211;-69
2023/02/10 07:44:39;;;;;;;53.63;27.30;;;;;;;;;;5053928;28;20196;-69
2023/02/10 07:47:07;;;;;;;60.35;27.98;;;;;;;;;;5069851;28;20200;-66
2023/02/10 07:49:35;;;;;;;67.90;26.90;;;;;;;;;;5045456;28;20207;-67
2023/02/10 07:52:03;;;;;;;46.30;26.45;;;;;;;;;;5069156;28;20761;-67
2023/02/10 07:54:33;;;;;;;57.55;29.27;;;;;;;;;;5057547;28;20214;-68
2023/02/10 07:57:01;;;;;;;60.45;29.15;;;;;;;;;;5072785;28;20576;-67
2023/02/10 07:59:29;;;;;;;53.50;28.90;;;;;;;;;;5048999;28;20223;-67
2023/02/10 08:01:57;;;;;;;57.05;27.38;;;;;;;;;;5074166;28;20204;-66
2023/02/10 08:04:26;;;;;;;48.55;26.67;;;;;;;;;;5054112;28;20664;-66
2023/02/10 08:06:54;;;;;;;57.20;29.10;;;;;;;;;;5053262;28;20575;-67
2023/02/10 08:09:22;;;;;;;53.38;29.52;;;;;;;;;;5054831;28;20207;-67
2023/02/10 08:11:52;;;;;;;56.72;28.67;;;;;;;;;;5055357;28;20204;-67
2023/02/10 08:14:20;;;;;;;52.72;29.13;;;;;;;;;;5055116;28;20204;-68
2023/02/10 08:16:48;;;;;;;52.63;28.10;;;;;;;;;;5055003;28;20693;-68
2023/02/10 08:19:16;;;;;;;50.70;29.13;;;;;;;;;;5053356;28;20708;-68
2023/02/10 08:21:44;;;;;;;51.00;26.63;;;;;;;;;;5053424;28;20208;-69
2023/02/10 08:24:12;;;;;;;60.60;31.08;;;;;;;;;;5053786;28;20235;-68
2023/02/10 08:26:41;;;;;;;53.85;28.13;;;;;;;;;;5054928;28;20538;-68
2023/02/10 08:29:12;;;;;;;55.92;30.15;;;;;;;;;;5054827;28;20201;-68
2023/02/10 08:31:40;;;;;;;54.00;29.88;;;;;;;;;;5055260;28;20595;-69
2023/02/10 08:34:14;;;;;;;53.00;25.30;;;;;;;;;;5054641;28;20208;-69
2023/02/10 08:36:42;;;;;;;56.40;29.77;;;;;;;;;;5054787;28;20243;-68
2023/02/10 08:39:10;;;;;;;56.65;29.55;;;;;;;;;;5054310;28;20227;-67
2023/02/10 08:41:39;;;;;;;56.75;28.98;;;;;;;;;;5055060;28;20215;-68
2023/02/10 08:44:08;;;;;;;56.95;27.83;;;;;;;;;;5054432;28;20220;-66
2023/02/10 08:46:38;;;;;;;52.78;28.73;;;;;;;;;;5047819;28;20272;-67
2023/02/10 08:49:06;;;;;;;52.38;28.27;;;;;;;;;;5073388;28;20204;-68
2023/02/10 08:51:34;;;;;;;52.97;28.23;;;;;;;;;;5074730;28;20206;-67
2023/02/10 08:54:03;;;;;;;57.95;30.55;;;;;;;;;;5059370;28;20561;-67
2023/02/10 08:56:31;;;;;;;49.03;28.67;;;;;;;;;;5049205;28;20201;-66
2023/02/10 08:58:59;;;;;;;51.53;28.13;;;;;;;;;;5072863;28;20633;-67
2023/02/10 09:01:28;;;;;;;51.78;27.52;;;;;;;;;;5073355;28;20204;-67
2023/02/10 09:03:58;;;;;;;52.67;29.17;;;;;;;;;;5060036;28;20591;-67
2023/02/10 09:06:27;;;;;;;45.53;26.23;;;;;;;;;;5059865;28;20211;-67
2023/02/10 09:08:56;;;;;;;49.55;27.88;;;;;;;;;;5074159;28;20214;-66
2023/02/10 09:11:24;;;;;;;51.80;27.40;;;;;;;;;;5073654;28;20595;-66
2023/02/10 09:13:53;;;;;;;59.88;28.30;;;;;;;;;;5058221;28;20428;-67
2023/02/10 09:16:21;;;;;;;49.50;28.08;;;;;;;;;;5057591;28;20227;-67
2023/02/10 09:18:49;;;;;;;45.35;25.30;;;;;;;;;;5061785;28;20585;-67
2023/02/10 09:21:19;;;;;;;46.47;25.45;;;;;;;;;;5066157;28;20209;-67
2023/02/10 09:23:47;;;;;;;40.42;25.77;;;;;;;;;;5055493;28;20285;-67
2023/02/10 09:26:15;;;;;;;45.88;25.75;;;;;;;;;;5059061;28;20207;-67
2023/02/10 09:28:44;;;;;;;47.97;28.90;;;;;;;;;;5038966;28;20212;-67
2023/02/10 09:31:15;;;;;;;53.75;26.63;;;;;;;;;;5049166;28;20204;-67
2023/02/10 09:33:43;;;;;;;47.42;26.67;;;;;;;;;;5074125;28;20560;-67
2023/02/10 09:36:14;;;;;;;43.00;25.67;;;;;;;;;;5062806;28;20710;-66
2023/02/10 09:38:43;;;;;;;45.65;26.88;;;;;;;;;;5068152;28;20207;-68
2023/02/10 09:41:16;;;;;;;45.15;24.67;;;;;;;;;;5048103;28;20216;-66
2023/02/10 09:43:55;;;;;;;51.13;26.55;;;;;;;;;;5068022;28;20239;-66
2023/02/10 09:46:26;;;;;;;53.13;29.13;;;;;;;;;;5070307;28;20200;-67
2023/02/10 09:49:01;;;;;;;44.55;25.92;;;;;;;;;;5064918;28;20207;-67
2023/02/10 09:51:34;;;;;;;47.35;27.23;;;;;;;;;;5066802;28;20218;-67
2023/02/10 09:54:09;;;;;;;45.78;26.48;;;;;;;;;;5050431;28;20651;-67
2023/02/10 09:56:37;;;;;;;42.67;25.83;;;;;;;;;;5072394;28;20203;-67
2023/02/10 09:59:06;;;;;;;43.17;25.23;;;;;;;;;;5045759;28;20566;-67
2023/02/10 10:01:38;;;;;;;42.60;25.52;;;;;;;;;;5071596;28;20647;-67
2023/02/10 10:04:08;;;;;;;41.15;23.95;;;;;;;;;;5061123;28;20207;-67
2023/02/10 10:06:38;;;;;;;39.13;23.95;;;;;;;;;;5056689;28;20746;-67
2023/02/10 10:09:17;;;;;;;38.00;24.20;;;;;;;;;;5068051;28;20204;-68
2023/02/10 10:11:46;;;;;;;39.80;23.70;;;;;;;;;;5047129;28;20208;-67
2023/02/10 10:14:17;;;;;;;38.13;22.35;;;;;;;;;;5069522;28;20200;-68
2023/02/10 10:17:04;;;;;;;48.33;25.10;;;;;;;;;;5062074;28;20576;-67
2023/02/10 10:19:42;;;;;;;40.75;24.08;;;;;;;;;;5066201;28;20192;-68
2023/02/10 10:22:18;;;;;;;43.40;28.55;;;;;;;;;;5051988;28;20758;-67
2023/02/10 10:24:55;;;;;;;41.30;25.67;;;;;;;;;;5046942;28;20203;-66
2023/02/10 10:27:29;;;;;;;41.20;25.90;;;;;;;;;;5065363;28;20678;-66
2023/02/10 10:30:02;;;;;;;39.00;25.95;;;;;;;;;;5072516;28;20191;-67
2023/02/10 10:32:37;;;;;;;42.58;23.83;;;;;;;;;;5069955;28;20206;-66
2023/02/10 10:35:13;;;;;;;37.40;24.40;;;;;;;;;;5069179;28;20572;-68
2023/02/10 10:37:41;;;;;;;44.00;25.70;;;;;;;;;;5049888;28;20232;-68
2023/02/10 10:40:16;;;;;;;35.70;22.83;;;;;;;;;;5055853;28;20224;-68
2023/02/10 10:42:46;;;;;;;40.70;24.35;;;;;;;;;;5071077;28;20267;-67
2023/02/10 10:45:16;;;;;;;42.78;25.67;;;;;;;;;;5064227;28;20195;-67
2023/02/10 10:47:47;;;;;;;37.55;24.45;;;;;;;;;;5056084;28;20206;-67
2023/02/10 10:50:16;;;;;;;43.00;24.40;;;;;;;;;;5072192;28;20199;-67
2023/02/10 10:52:50;;;;;;;39.63;24.38;;;;;;;;;;5068377;28;20215;-67
2023/02/10 10:55:23;;;;;;;39.13;24.25;;;;;;;;;;5068060;28;20200;-68
2023/02/10 10:57:52;;;;;;;42.10;23.83;;;;;;;;;;5054756;28;20198;-67
2023/02/10 11:00:21;;;;;;;38.38;22.80;;;;;;;;;;5045172;28;20223;-67
2023/02/10 11:02:54;;;;;;;35.17;23.13;;;;;;;;;;5060449;28;20649;-67
2023/02/10 11:05:22;;;;;;;34.13;22.50;;;;;;;;;;5067983;28;20206;-67
2023/02/10 11:07:53;;;;;;;34.90;21.75;;;;;;;;;;5042213;28;20207;-67
2023/02/10 11:10:24;;;;;;;36.47;23.77;;;;;;;;;;5049012;28;20205;-67
2023/02/10 11:12:52;;;;;;;37.00;24.48;;;;;;;;;;5030923;28;20197;-67
2023/02/10 11:15:38;;;;;;;34.20;24.17;;;;;;;;;;5036103;28;20255;-67
2023/02/10 11:18:08;;;;;;;34.75;23.05;;;;;;;;;;5031269;28;20624;-68
2023/02/10 11:20:37;;;;;;;39.00;24.27;;;;;;;;;;5046558;28;20213;-68
2023/02/10 11:23:13;;;;;;;33.47;24.17;;;;;;;;;;5050713;28;20217;-68
2023/02/10 11:25:43;;;;;;;32.25;24.55;;;;;;;;;;5044646;28;20200;-68
2023/02/10 11:28:18;;;;;;;37.75;26.95;;;;;;;;;;5027869;28;20186;-68
2023/02/10 11:30:48;;;;;;;34.10;25.52;;;;;;;;;;5041915;28;20185;-69
2023/02/10 11:33:21;;;;;;;34.00;24.48;;;;;;;;;;5047432;28;20201;-68
2023/02/10 11:35:50;;;;;;;34.58;24.65;;;;;;;;;;5051029;28;20261;-68
2023/02/10 11:38:20;;;;;;;34.60;24.70;;;;;;;;;;5046038;28;20246;-68
2023/02/10 11:40:52;;;;;;;35.85;25.60;;;;;;;;;;5044567;28;20212;-68
2023/02/10 11:43:21;;;;;;;35.72;24.75;;;;;;;;;;5043427;28;20558;-67
2023/02/10 11:45:53;;;;;;;34.85;23.50;;;;;;;;;;5043758;28;20570;-68
2023/02/10 11:48:22;;;;;;;42.15;25.58;;;;;;;;;;5043384;28;20196;-68
2023/02/10 11:51:01;;;;;;;33.15;24.40;;;;;;;;;;5044144;28;20196;-69
2023/02/10 11:53:30;;;;;;;39.42;27.90;;;;;;;;;;5044942;28;20651;-68
2023/02/10 11:56:02;;;;;;;35.03;25.95;;;;;;;;;;5044745;28;20201;-68
2023/02/10 11:58:58;;;;;;;32.88;25.20;;;;;;;;;;5048515;28;20195;-68
2023/02/10 12:01:32;;;;;;;31.15;25.58;;;;;;;;;;5055256;28;20219;-68
2023/02/10 12:04:03;;;;;;;33.05;25.60;;;;;;;;;;5047663;28;20223;-73
2023/02/10 12:06:35;;;;;;;39.22;24.77;;;;;;;;;;5035201;28;20189;-68
2023/02/10 12:09:06;;;;;;;31.60;24.80;;;;;;;;;;5052925;28;20249;-68
2023/02/10 12:11:41;;;;;;;41.13;29.88;;;;;;;;;;5045015;28;20189;-67
2023/02/10 12:14:19;;;;;;;42.13;28.65;;;;;;;;;;5054183;28;20291;-68
2023/02/10 12:16:50;;;;;;;34.50;25.08;;;;;;;;;;5050831;28;20219;-68
2023/02/10 12:19:22;;;;;;;41.80;28.17;;;;;;;;;;5044478;28;20196;-69
2023/02/10 12:21:59;;;;;;;32.63;25.42;;;;;;;;;;5046150;28;20268;-68
2023/02/10 12:24:36;;;;;;;30.40;24.85;;;;;;;;;;5044262;28;20591;-67
2023/02/10 12:27:09;;;;;;;34.10;24.40;;;;;;;;;;5044749;28;20197;-68
2023/02/10 12:29:44;;;;;;;34.65;25.33;;;;;;;;;;5045941;28;20207;-68
2023/02/10 12:32:19;;;;;;;29.38;23.70;;;;;;;;;;5047660;28;20203;-67
2023/02/10 12:34:55;;;;;;;32.88;23.73;;;;;;;;;;5043720;28;20570;-67
2023/02/10 12:37:29;;;;;;;38.45;26.42;;;;;;;;;;5044495;28;20722;-67
2023/02/10 12:40:01;;;;;;;34.75;25.98;;;;;;;;;;5046129;28;20196;-67
2023/02/10 12:42:41;;;;;;;30.55;23.35;;;;;;;;;;5053584;28;20209;-68
2023/02/10 12:45:15;;;;;;;34.70;26.02;;;;;;;;;;5046840;28;20203;-67
2023/02/10 12:47:47;;;;;;;33.72;25.17;;;;;;;;;;5041425;28;20189;-67
2023/02/10 12:50:25;;;;;;;28.90;24.10;;;;;;;;;;5051189;28;20246;-67
2023/02/10 12:52:56;;;;;;;34.67;24.85;;;;;;;;;;5042224;28;20188;-67
2023/02/10 12:55:25;;;;;;;28.75;21.35;;;;;;;;;;5049601;28;20207;-67
2023/02/10 12:57:57;;;;;;;31.40;22.40;;;;;;;;;;5046125;28;20200;-67
2023/02/10 13:00:28;;;;;;;30.42;23.08;;;;;;;;;;5044500;28;20185;-67
2023/02/10 13:02:58;;;;;;;31.08;23.35;;;;;;;;;;5044480;28;20672;-67
2023/02/10 13:05:29;;;;;;;31.58;24.20;;;;;;;;;;5041982;28;20761;-67
2023/02/10 13:08:00;;;;;;;28.23;24.05;;;;;;;;;;5043517;28;20194;-67
2023/02/10 13:10:31;;;;;;;34.93;25.00;;;;;;;;;;5048564;28;20647;-68
2023/02/10 13:13:04;;;;;;;32.43;23.90;;;;;;;;;;5054645;28;21004;-68
2023/02/10 13:15:34;;;;;;;33.80;24.10;;;;;;;;;;5047638;28;20946;-68
2023/02/10 13:18:03;;;;;;;33.20;25.97;;;;;;;;;;5054694;28;20583;-68
2023/02/10 13:20:36;;;;;;;31.80;26.20;;;;;;;;;;5051431;28;21142;-68
2023/02/10 13:23:11;;;;;;;30.73;23.63;;;;;;;;;;5033810;28;20676;-68
2023/02/10 13:25:46;;;;;;;32.85;26.70;;;;;;;;;;5046902;28;20932;-68
2023/02/10 13:28:20;;;;;;;33.38;25.35;;;;;;;;;;5053229;28;20188;-68
2023/02/10 13:31:05;;;;;;;29.80;26.13;;;;;;;;;;5052230;28;20197;-68
2023/02/10 13:33:37;;;;;;;27.88;24.65;;;;;;;;;;5052610;28;20193;-69
2023/02/10 13:36:07;;;;;;;28.83;23.63;;;;;;;;;;5033198;28;20233;-68
2023/02/10 13:38:35;;;;;;;31.85;24.67;;;;;;;;;;5034742;28;20189;-69
2023/02/10 13:43:57;;;;;;;28.55;22.85;;;;;;;;;;5034211;28;20194;-69
2023/02/10 13:46:28;;;;;;;27.20;23.90;;;;;;;;;;5045209;28;20200;-68
2023/02/10 13:48:57;;;;;;;30.33;22.88;;;;;;;;;;5041434;28;20307;-68
2023/02/10 13:51:30;;;;;;;33.38;24.40;;;;;;;;;;5037758;28;20671;-68
2023/02/10 13:53:58;;;;;;;32.00;23.17;;;;;;;;;;5036556;28;20204;-68
2023/02/10 13:56:28;;;;;;;33.30;23.20;;;;;;;;;;5053033;28;20208;-68
2023/02/10 13:58:58;;;;;;;28.35;22.08;;;;;;;;;;5050784;28;20211;-68
2023/02/10 14:01:34;;;;;;;29.55;22.42;;;;;;;;;;5052517;28;20208;-68
2023/02/10 14:04:02;;;;;;;28.48;21.77;;;;;;;;;;5050770;28;20219;-68
2023/02/10 14:06:36;;;;;;;27.83;21.60;;;;;;;;;;5050220;28;20205;-69
2023/02/10 14:09:05;;;;;;;29.73;23.42;;;;;;;;;;5044353;28;20201;-68
2023/02/10 14:11:40;;;;;;;28.80;21.27;;;;;;;;;;5050723;28;20550;-68
2023/02/10 14:14:20;;;;;;;31.55;23.33;;;;;;;;;;5053801;28;20200;-68
2023/02/10 14:16:50;;;;;;;30.45;22.80;;;;;;;;;;5052540;28;20199;-67
2023/02/10 14:19:23;;;;;;;33.40;22.83;;;;;;;;;;5034122;28;20208;-68
2023/02/10 14:21:54;;;;;;;26.02;21.17;;;;;;;;;;5052499;28;20213;-68
2023/02/10 14:24:24;;;;;;;38.58;22.50;;;;;;;;;;5041206;28;20228;-68
2023/02/10 14:26:53;;;;;;;29.85;21.45;;;;;;;;;;5038432;28;20514;-68
2023/02/10 14:29:23;;;;;;;32.33;22.95;;;;;;;;;;5052712;28;20210;-68
2023/02/10 14:31:53;;;;;;;33.33;21.33;;;;;;;;;;5046562;28;20570;-68
2023/02/10 14:34:23;;;;;;;34.08;22.45;;;;;;;;;;5053196;28;20195;-68
2023/02/10 14:36:54;;;;;;;24.75;20.20;;;;;;;;;;5036774;28;20675;-68